Time;durP1;ratioP1;P1;durP2;ratioP2;P2;SDS_P1;SDS_P2;PMS_P1;PMS_P2;Temp;Humidity;BMP_temperature;BMP_pressure;BME280_temperature;BME280_humidity;BME280_pressure;Samples;Min_cycle;Max_cycle;Signal;HPM_P1;HPM_P2
2022/09/24 00:00:13;;;;;;;;;;;15.10;99.90;;;;;;5076125;28;19940;-80
2022/09/24 00:02:40;;;;;;;;;;;15.10;99.90;;;;;;5074388;28;19970;-80
2022/09/24 00:05:07;;;;;;;;;;;15.10;99.90;;;;;;5054149;28;19928;-80
2022/09/24 00:07:34;;;;;;;;;;;15.10;99.90;;;;;;5076752;28;19932;-80
2022/09/24 00:10:01;;;;;;;;;;;15.00;99.90;;;;;;5070234;28;19924;-81
2022/09/24 00:12:29;;;;;;;;;;;15.00;99.90;;;;;;5087800;28;20376;-81
2022/09/24 00:14:56;;;;;;;;;;;15.00;99.90;;;;;;5056875;28;19970;-81
2022/09/24 00:17:23;;;;;;;;;;;14.90;99.90;;;;;;5054130;28;19928;-80
2022/09/24 00:19:50;;;;;;;;;;;14.90;99.90;;;;;;5054224;28;19940;-80
2022/09/24 00:22:16;;;;;;;;;;;14.80;99.90;;;;;;5054366;28;19964;-80
2022/09/24 00:27:28;;;;;;;;;;;14.80;99.90;;;;;;5054697;28;19931;-80
2022/09/24 00:29:59;;;;;;;;;;;14.70;99.90;;;;;;5071666;28;19928;-80
2022/09/24 00:32:26;;;;;;;;;;;14.70;99.90;;;;;;5054696;28;19936;-80
2022/09/24 00:34:53;;;;;;;;;;;14.70;99.90;;;;;;5071097;28;20019;-80
2022/09/24 00:37:21;;;;;;;;;;;14.70;99.90;;;;;;5054612;28;19928;-80
2022/09/24 00:39:47;;;;;;;;;;;14.60;99.90;;;;;;5053899;28;19986;-80
2022/09/24 00:42:14;;;;;;;;;;;14.60;99.90;;;;;;5053906;28;19935;-80
2022/09/24 00:44:52;;;;;;;;;;;14.60;99.90;;;;;;5070795;28;19931;-79
2022/09/24 00:47:26;;;;;;;;;;;14.60;99.90;;;;;;5053708;28;20744;-80
2022/09/24 00:49:56;;;;;;;;;;;14.60;99.90;;;;;;5052873;28;20306;-80
2022/09/24 00:52:23;;;;;;;;;;;14.60;99.90;;;;;;5072076;28;19924;-79
2022/09/24 00:54:50;;;;;;;;;;;14.50;99.90;;;;;;5070803;28;19928;-80
2022/09/24 00:57:17;;;;;;;;;;;14.50;99.90;;;;;;5071270;28;19933;-80
2022/09/24 00:59:44;;;;;;;;;;;14.50;99.90;;;;;;5080172;28;19936;-80
2022/09/24 01:02:11;;;;;;;;;;;14.50;99.90;;;;;;5074076;28;19968;-80
2022/09/24 01:04:39;;;;;;;;;;;14.40;99.90;;;;;;5090978;28;19927;-80
2022/09/24 01:07:08;;;;;;;;;;;14.40;99.90;;;;;;5073695;28;19924;-80
2022/09/24 01:09:35;;;;;;;;;;;14.40;99.90;;;;;;5076472;28;19931;-79
2022/09/24 01:12:07;;;;;;;;;;;14.40;99.90;;;;;;5072411;28;19935;-79
2022/09/24 01:14:42;;;;;;;;;;;14.30;99.90;;;;;;5072040;28;19958;-79
2022/09/24 01:17:18;;;;;;;;;;;14.30;99.90;;;;;;5072164;28;19925;-80
2022/09/24 01:19:58;;;;;;;;;;;14.30;99.90;;;;;;5088216;28;19932;-79
2022/09/24 01:22:33;;;;;;;;;;;14.30;99.90;;;;;;5088794;28;19978;-78
2022/09/24 01:25:01;;;;;;;;;;;14.30;99.90;;;;;;5089219;28;19924;-78
2022/09/24 01:27:33;;;;;;;;;;;14.30;99.90;;;;;;5070018;28;19928;-79
2022/09/24 01:30:04;;;;;;;;;;;14.30;99.90;;;;;;5060435;28;19932;-79
2022/09/24 01:32:36;;;;;;;;;;;14.30;99.90;;;;;;5050791;28;20352;-79
2022/09/24 01:35:07;;;;;;;;;;;14.30;99.90;;;;;;5056586;28;19974;-79
2022/09/24 01:37:35;;;;;;;;;;;14.30;99.90;;;;;;5059284;28;20400;-79
2022/09/24 01:40:03;;;;;;;;;;;14.30;99.90;;;;;;5075217;28;19974;-79
2022/09/24 01:42:30;;;;;;;;;;;14.30;99.90;;;;;;5067095;28;19925;-79
2022/09/24 01:44:58;;;;;;;;;;;14.30;99.90;;;;;;5058112;28;19932;-79
2022/09/24 01:47:29;;;;;;;;;;;14.30;99.90;;;;;;5050518;28;19936;-79
2022/09/24 01:49:56;;;;;;;;;;;14.30;99.90;;;;;;5076494;28;20384;-79
2022/09/24 01:52:25;;;;;;;;;;;14.20;99.90;;;;;;5070203;28;19928;-79
2022/09/24 01:54:53;;;;;;;;;;;14.20;99.90;;;;;;5051764;28;20341;-79
2022/09/24 01:57:22;;;;;;;;;;;14.20;99.90;;;;;;5051499;28;19936;-79
2022/09/24 01:59:54;;;;;;;;;;;14.20;99.90;;;;;;5069194;28;19928;-85
2022/09/24 02:02:24;;;;;;;;;;;14.20;99.90;;;;;;5053128;28;19924;-84
2022/09/24 02:04:56;;;;;;;;;;;14.20;99.90;;;;;;5069193;28;19936;-85
2022/09/24 02:07:24;;;;;;;;;;;14.10;99.90;;;;;;5075240;28;20288;-84
2022/09/24 02:09:51;;;;;;;;;;;14.10;99.90;;;;;;5071804;28;20540;-84
2022/09/24 02:12:21;;;;;;;;;;;14.10;99.90;;;;;;5070079;28;19986;-84
2022/09/24 02:14:52;;;;;;;;;;;14.00;99.90;;;;;;5054871;28;19924;-83
2022/09/24 02:17:19;;;;;;;;;;;14.00;99.90;;;;;;5070926;28;20034;-83
2022/09/24 02:19:47;;;;;;;;;;;14.00;99.90;;;;;;5054496;28;20384;-83
2022/09/24 02:22:17;;;;;;;;;;;14.00;99.90;;;;;;5073975;28;19932;-84
2022/09/24 02:24:46;;;;;;;;;;;14.00;99.90;;;;;;5058821;28;19943;-83
2022/09/24 02:27:13;;;;;;;;;;;14.00;99.90;;;;;;5075942;28;20015;-85
2022/09/24 02:29:40;;;;;;;;;;;14.00;99.90;;;;;;5074577;28;20576;-86
2022/09/24 02:32:08;;;;;;;;;;;14.00;99.90;;;;;;5077317;28;19924;-82
2022/09/24 02:34:37;;;;;;;;;;;14.00;99.90;;;;;;5095708;28;20545;-84
2022/09/24 02:37:05;;;;;;;;;;;14.00;99.90;;;;;;5078408;28;19924;-84
2022/09/24 02:39:33;;;;;;;;;;;14.00;99.90;;;;;;5077449;28;20338;-84
2022/09/24 02:42:01;;;;;;;;;;;14.00;99.90;;;;;;5092514;28;19995;-86
2022/09/24 02:44:29;;;;;;;;;;;14.00;99.90;;;;;;5064319;28;19929;-86
2022/09/24 02:46:56;;;;;;;;;;;14.00;99.90;;;;;;5056230;28;19933;-85
2022/09/24 02:49:23;;;;;;;;;;;14.00;99.90;;;;;;5073021;28;19928;-86
2022/09/24 02:51:49;;;;;;;;;;;14.00;99.90;;;;;;5061383;28;19928;-84
2022/09/24 02:54:16;;;;;;;;;;;14.00;99.90;;;;;;5071030;28;19947;-85
2022/09/24 02:56:45;;;;;;;;;;;14.00;99.90;;;;;;5098003;28;19924;-85
2022/09/24 02:59:12;;;;;;;;;;;14.00;99.90;;;;;;5078813;28;19932;-86
2022/09/24 03:01:39;;;;;;;;;;;14.00;99.90;;;;;;5077205;28;19947;-82
2022/09/24 03:04:06;;;;;;;;;;;13.90;99.90;;;;;;5096498;28;19971;-80
2022/09/24 03:06:33;;;;;;;;;;;13.90;99.90;;;;;;5094955;28;19928;-80
2022/09/24 03:09:01;;;;;;;;;;;13.80;99.90;;;;;;5094280;28;19987;-81
2022/09/24 03:11:28;;;;;;;;;;;13.80;99.90;;;;;;5094732;28;20425;-80
2022/09/24 03:13:56;;;;;;;;;;;13.80;99.90;;;;;;5093767;28;19960;-81
2022/09/24 03:16:23;;;;;;;;;;;13.80;99.90;;;;;;5095021;28;19928;-79
2022/09/24 03:18:50;;;;;;;;;;;13.80;99.90;;;;;;5094172;28;19977;-80
2022/09/24 03:21:18;;;;;;;;;;;13.80;99.90;;;;;;5094425;28;20421;-81
2022/09/24 03:23:45;;;;;;;;;;;13.70;99.90;;;;;;5093398;28;20005;-80
2022/09/24 03:26:12;;;;;;;;;;;13.70;99.90;;;;;;5093282;28;19973;-81
2022/09/24 03:28:39;;;;;;;;;;;13.70;99.90;;;;;;5093178;28;20596;-80
2022/09/24 03:31:07;;;;;;;;;;;13.70;99.90;;;;;;5092230;28;20198;-79
2022/09/24 03:33:35;;;;;;;;;;;13.70;99.90;;;;;;5093189;28;20372;-79
2022/09/24 03:36:03;;;;;;;;;;;13.60;99.90;;;;;;5079515;28;19935;-79
2022/09/24 03:38:30;;;;;;;;;;;13.60;99.90;;;;;;5093819;28;20307;-80
2022/09/24 03:40:57;;;;;;;;;;;13.60;99.90;;;;;;5076149;28;19973;-81
2022/09/24 03:43:28;;;;;;;;;;;13.60;99.90;;;;;;5092660;28;20209;-80
2022/09/24 03:45:55;;;;;;;;;;;13.60;99.90;;;;;;5094614;28;19924;-83
2022/09/24 03:48:24;;;;;;;;;;;13.60;99.90;;;;;;5093529;28;20479;-80
2022/09/24 03:50:51;;;;;;;;;;;13.50;99.90;;;;;;5077201;28;20319;-81
2022/09/24 03:53:18;;;;;;;;;;;13.50;99.90;;;;;;5096686;28;19924;-82
2022/09/24 03:55:46;;;;;;;;;;;13.50;99.90;;;;;;5075657;28;20312;-83
2022/09/24 03:58:13;;;;;;;;;;;13.50;99.90;;;;;;5093306;28;19931;-83
2022/09/24 04:00:40;;;;;;;;;;;13.50;99.90;;;;;;5076684;28;20450;-82
2022/09/24 04:03:07;;;;;;;;;;;13.50;99.90;;;;;;5087717;28;20319;-82
2022/09/24 04:05:35;;;;;;;;;;;13.50;99.90;;;;;;5056751;28;20395;-83
2022/09/24 04:08:03;;;;;;;;;;;13.50;99.90;;;;;;5055654;28;19928;-85
2022/09/24 04:10:30;;;;;;;;;;;13.50;99.90;;;;;;5055434;28;20013;-84
2022/09/24 04:12:57;;;;;;;;;;;13.50;99.90;;;;;;5055073;28;19974;-82
2022/09/24 04:15:24;;;;;;;;;;;13.50;99.90;;;;;;5073543;28;19955;-82
2022/09/24 04:17:51;;;;;;;;;;;13.40;99.90;;;;;;5072639;28;19924;-82
2022/09/24 04:20:21;;;;;;;;;;;13.40;99.90;;;;;;5056823;28;19974;-81
2022/09/24 04:22:50;;;;;;;;;;;13.40;99.90;;;;;;5073553;28;19974;-83
2022/09/24 04:25:17;;;;;;;;;;;13.40;99.90;;;;;;5056882;28;19944;-82
2022/09/24 04:27:44;;;;;;;;;;;13.50;99.90;;;;;;5073751;28;19928;-82
2022/09/24 04:30:12;;;;;;;;;;;13.50;99.90;;;;;;5056240;28;20049;-81
2022/09/24 04:32:39;;;;;;;;;;;13.50;99.90;;;;;;5069733;28;19924;-81
2022/09/24 04:35:07;;;;;;;;;;;13.50;99.90;;;;;;5086894;28;19972;-81
2022/09/24 04:37:34;;;;;;;;;;;13.50;99.90;;;;;;5097687;28;19965;-81
2022/09/24 04:40:02;;;;;;;;;;;13.50;99.90;;;;;;5066859;28;20388;-82
2022/09/24 04:42:29;;;;;;;;;;;13.40;99.90;;;;;;5094063;28;19924;-82
2022/09/24 04:44:56;;;;;;;;;;;13.40;99.90;;;;;;5069389;28;19932;-83
2022/09/24 04:47:24;;;;;;;;;;;13.40;99.90;;;;;;5075710;28;20311;-82
2022/09/24 04:49:51;;;;;;;;;;;13.40;99.90;;;;;;5092077;28;19971;-82
2022/09/24 04:52:18;;;;;;;;;;;13.40;99.90;;;;;;5076505;28;19935;-82
2022/09/24 04:54:46;;;;;;;;;;;13.40;99.90;;;;;;5075637;28;19993;-82
2022/09/24 04:57:14;;;;;;;;;;;13.30;99.90;;;;;;5091800;28;19940;-80
2022/09/24 04:59:41;;;;;;;;;;;13.30;99.90;;;;;;5075248;28;19924;-82
2022/09/24 05:02:08;;;;;;;;;;;13.30;99.90;;;;;;5076101;28;19928;-82
2022/09/24 05:04:35;;;;;;;;;;;13.30;99.90;;;;;;5093833;28;20353;-81
2022/09/24 05:07:02;;;;;;;;;;;13.30;99.90;;;;;;5092683;28;19947;-82
2022/09/24 05:09:41;;;;;;;;;;;13.30;99.90;;;;;;5095466;28;20295;-82
2022/09/24 05:12:08;;;;;;;;;;;13.30;99.90;;;;;;5078176;28;19924;-84
2022/09/24 05:14:36;;;;;;;;;;;13.30;99.90;;;;;;5092826;28;19971;-81
2022/09/24 05:17:14;;;;;;;;;;;13.30;99.90;;;;;;5094049;28;19962;-81
2022/09/24 05:19:41;;;;;;;;;;;13.30;99.90;;;;;;5093632;28;19981;-83
2022/09/24 05:22:08;;;;;;;;;;;13.20;99.90;;;;;;5093415;28;20268;-82
2022/09/24 05:24:35;;;;;;;;;;;13.30;99.90;;;;;;5077721;28;19985;-84
2022/09/24 05:27:10;;;;;;;;;;;13.20;99.90;;;;;;5095845;28;20007;-83
2022/09/24 05:29:39;;;;;;;;;;;13.30;99.90;;;;;;5094615;28;19928;-83
2022/09/24 05:32:06;;;;;;;;;;;13.30;99.90;;;;;;5095008;28;19924;-84
2022/09/24 05:34:40;;;;;;;;;;;13.30;99.90;;;;;;5079151;28;19924;-82
2022/09/24 05:37:07;;;;;;;;;;;13.30;99.90;;;;;;5096502;28;19946;-83
2022/09/24 05:39:34;;;;;;;;;;;13.30;99.90;;;;;;5094779;28;19932;-82
2022/09/24 05:42:10;;;;;;;;;;;13.30;99.90;;;;;;5094992;28;19927;-83
2022/09/24 05:44:38;;;;;;;;;;;13.30;99.90;;;;;;5096304;28;20383;-82
2022/09/24 05:47:06;;;;;;;;;;;13.30;99.90;;;;;;5096489;28;19931;-82
2022/09/24 05:49:33;;;;;;;;;;;13.30;99.90;;;;;;5077918;28;19950;-82
2022/09/24 05:52:00;;;;;;;;;;;13.40;99.90;;;;;;5073368;28;19924;-79
2022/09/24 05:54:27;;;;;;;;;;;13.40;99.90;;;;;;5090540;28;19928;-78
2022/09/24 05:56:54;;;;;;;;;;;13.40;99.90;;;;;;5076042;28;20539;-79
2022/09/24 05:59:21;;;;;;;;;;;13.50;99.90;;;;;;5075072;28;20034;-79
2022/09/24 06:01:49;;;;;;;;;;;13.50;99.90;;;;;;5074666;28;20344;-79
2022/09/24 06:04:17;;;;;;;;;;;13.50;99.90;;;;;;5092236;28;19928;-79
2022/09/24 06:06:44;;;;;;;;;;;13.50;99.90;;;;;;5093310;28;19938;-79
2022/09/24 06:09:10;;;;;;;;;;;13.50;99.90;;;;;;5080757;28;19931;-79
2022/09/24 06:11:37;;;;;;;;;;;13.50;99.90;;;;;;5055465;28;20342;-79
2022/09/24 06:14:04;;;;;;;;;;;13.60;99.90;;;;;;5054339;28;19978;-79
2022/09/24 06:16:32;;;;;;;;;;;13.60;99.90;;;;;;5054950;28;19928;-79
2022/09/24 06:19:00;;;;;;;;;;;13.70;99.90;;;;;;5055172;28;19925;-79
2022/09/24 06:21:27;;;;;;;;;;;13.70;99.90;;;;;;5073645;28;19936;-78
2022/09/24 06:23:54;;;;;;;;;;;13.70;99.90;;;;;;5082635;28;19978;-79
2022/09/24 06:26:21;;;;;;;;;;;13.80;99.90;;;;;;5073794;28;19942;-78
2022/09/24 06:28:48;;;;;;;;;;;13.80;99.90;;;;;;5072074;28;19936;-78
2022/09/24 06:31:15;;;;;;;;;;;13.80;99.90;;;;;;5072488;28;19928;-78
2022/09/24 06:33:43;;;;;;;;;;;13.90;99.90;;;;;;5100793;28;19928;-79
2022/09/24 06:36:12;;;;;;;;;;;13.90;99.90;;;;;;5077394;28;20420;-79
2022/09/24 06:38:40;;;;;;;;;;;13.90;99.90;;;;;;5068717;28;19925;-81
2022/09/24 06:41:07;;;;;;;;;;;14.00;99.90;;;;;;5061493;28;19929;-81
2022/09/24 06:43:34;;;;;;;;;;;14.00;99.90;;;;;;5078406;28;20160;-81
2022/09/24 06:46:02;;;;;;;;;;;14.20;99.90;;;;;;5083841;28;19928;-80
2022/09/24 06:48:29;;;;;;;;;;;14.30;99.90;;;;;;5068880;28;20003;-80
2022/09/24 06:50:58;;;;;;;;;;;14.70;99.90;;;;;;5099327;28;19932;-80
2022/09/24 06:53:27;;;;;;;;;;;14.90;99.90;;;;;;5098198;28;19928;-82
2022/09/24 06:55:56;;;;;;;;;;;15.30;99.90;;;;;;5077579;28;19931;-83
2022/09/24 06:58:23;;;;;;;;;;;15.70;99.90;;;;;;5081031;28;19924;-83
2022/09/24 07:00:53;;;;;;;;;;;16.30;99.90;;;;;;5065648;28;19964;-83
2022/09/24 07:03:20;;;;;;;;;;;16.20;99.90;;;;;;5080096;28;19935;-85
2022/09/24 07:05:47;;;;;;;;;;;16.30;99.90;;;;;;5071486;28;19924;-84
2022/09/24 07:08:14;;;;;;;;;;;16.20;99.90;;;;;;5078152;28;20388;-81
2022/09/24 07:10:44;;;;;;;;;;;16.30;99.90;;;;;;5075730;28;19924;-80
2022/09/24 07:13:12;;;;;;;;;;;16.20;99.90;;;;;;5097292;28;19954;-84
2022/09/24 07:15:39;;;;;;;;;;;16.20;99.90;;;;;;5080259;28;19955;-82
2022/09/24 07:18:06;;;;;;;;;;;16.00;99.90;;;;;;5067586;28;20053;-84
2022/09/24 07:20:35;;;;;;;;;;;16.00;99.90;;;;;;5090583;28;19932;-84
2022/09/24 07:23:03;;;;;;;;;;;15.90;99.90;;;;;;5091735;28;20383;-84
2022/09/24 07:25:31;;;;;;;;;;;15.80;99.90;;;;;;5074276;28;19924;-83
2022/09/24 07:28:00;;;;;;;;;;;;;;;;;;5066741;28;19924;-83
2022/09/24 07:30:29;;;;;;;;;;;15.80;99.90;;;;;;5088676;28;19928;-83
2022/09/24 07:32:56;;;;;;;;;;;15.80;99.90;;;;;;5077979;28;19924;-83
2022/09/24 07:35:23;;;;;;;;;;;15.80;99.90;;;;;;5087425;28;19924;-83
2022/09/24 07:37:56;;;;;;;;;;;15.90;99.90;;;;;;5096549;28;19935;-83
2022/09/24 07:40:23;;;;;;;;;;;15.90;99.90;;;;;;5072005;28;19965;-84
2022/09/24 07:42:50;;;;;;;;;;;16.00;99.90;;;;;;5060089;28;19935;-83
2022/09/24 07:45:17;;;;;;;;;;;16.10;99.90;;;;;;5080849;28;19935;-83
2022/09/24 07:47:45;;;;;;;;;;;16.20;99.90;;;;;;5070747;28;19928;-83
2022/09/24 07:50:12;;;;;;;;;;;16.30;99.90;;;;;;5087660;28;19928;-84
2022/09/24 07:52:39;;;;;;;;;;;16.40;99.90;;;;;;5064342;28;19928;-82
2022/09/24 07:55:07;;;;;;;;;;;16.50;99.90;;;;;;5066474;28;19924;-83
2022/09/24 07:57:34;;;;;;;;;;;16.60;99.90;;;;;;5097089;28;19976;-83
2022/09/24 08:00:01;;;;;;;;;;;16.70;99.90;;;;;;5066837;28;19986;-83
2022/09/24 08:02:38;;;;;;;;;;;16.90;99.90;;;;;;5077056;28;19924;-82
2022/09/24 08:05:07;;;;;;;;;;;17.20;99.90;;;;;;5058063;28;19929;-83
2022/09/24 08:07:34;;;;;;;;;;;17.50;99.90;;;;;;5075938;28;19928;-82
2022/09/24 08:10:01;;;;;;;;;;;17.70;99.90;;;;;;5076717;28;20027;-82
2022/09/24 08:12:28;;;;;;;;;;;17.90;99.90;;;;;;5058969;28;19925;-82
2022/09/24 08:14:56;;;;;;;;;;;18.30;99.90;;;;;;5083578;28;19966;-82
2022/09/24 08:17:23;;;;;;;;;;;18.60;99.90;;;;;;5078037;28;19934;-82
2022/09/24 08:19:51;;;;;;;;;;;19.00;99.90;;;;;;5075201;28;19932;-83
2022/09/24 08:22:19;;;;;;;;;;;19.30;99.90;;;;;;5090115;28;20003;-82
2022/09/24 08:24:46;;;;;;;;;;;19.50;99.90;;;;;;5090196;28;20349;-82
2022/09/24 08:27:13;;;;;;;;;;;19.70;99.90;;;;;;5064279;28;19932;-82
2022/09/24 08:29:40;;;;;;;;;;;20.00;99.90;;;;;;5085851;28;19994;-82
2022/09/24 08:32:07;;;;;;;;;;;20.20;99.90;;;;;;5090019;28;20008;-82
2022/09/24 08:34:37;;;;;;;;;;;20.20;99.90;;;;;;5070840;28;19928;-82
2022/09/24 08:37:04;;;;;;;;;;;20.40;99.90;;;;;;5071294;28;19927;-82
2022/09/24 08:39:33;;;;;;;;;;;20.60;99.90;;;;;;5068750;28;19932;-83
2022/09/24 08:42:01;;;;;;;;;;;20.80;99.90;;;;;;5086119;28;19929;-80
2022/09/24 08:47:24;;;;;;;;;;;21.30;99.90;;;;;;5071433;28;20319;-80
2022/09/24 08:49:56;;;;;;;;;;;21.70;99.90;;;;;;5063873;28;19924;-80
2022/09/24 08:52:29;;;;;;;;;;;22.10;99.90;;;;;;5087323;28;20298;-82
2022/09/24 08:55:01;;;;;;;;;;;22.50;99.90;;;;;;5062022;28;19928;-80
2022/09/24 08:57:28;;;;;;;;;;;22.70;99.90;;;;;;5069344;28;20720;-81
2022/09/24 08:59:55;;;;;;;;;;;22.90;99.90;;;;;;5091595;28;19924;-81
2022/09/24 09:02:34;;;;;;;;;;;23.00;99.90;;;;;;5090193;28;19916;-81
2022/09/24 09:05:05;;;;;;;;;;;23.10;99.90;;;;;;5067078;28;19928;-82
2022/09/24 09:07:39;;;;;;;;;;;23.30;99.90;;;;;;5071272;28;19935;-81
2022/09/24 09:10:09;;;;;;;;;;;23.50;99.90;;;;;;5068327;28;19932;-82
2022/09/24 09:12:38;;;;;;;;;;;23.50;99.90;;;;;;5087560;28;19950;-82
2022/09/24 09:15:06;;;;;;;;;;;23.40;99.90;;;;;;5090357;28;20037;-82
2022/09/24 09:17:36;;;;;;;;;;;23.40;99.90;;;;;;5075944;28;19928;-81
2022/09/24 09:20:05;;;;;;;;;;;23.20;99.90;;;;;;5085476;28;19928;-82
2022/09/24 09:22:35;;;;;;;;;;;22.90;99.90;;;;;;5076315;28;19970;-81
2022/09/24 09:25:03;;;;;;;;;;;22.80;99.90;;;;;;5082143;28;20019;-81
2022/09/24 09:27:32;;;;;;;;;;;22.60;99.90;;;;;;5074458;28;19931;-81
2022/09/24 09:30:02;;;;;;;;;;;22.50;99.90;;;;;;5086167;28;22193;-81
2022/09/24 09:32:37;;;;;;;;;;;22.40;99.90;;;;;;5067915;28;19935;-82
2022/09/24 09:35:11;;;;;;;;;;;22.40;99.90;;;;;;5088436;28;19930;-81
2022/09/24 09:37:42;;;;;;;;;;;22.30;99.90;;;;;;5064550;28;20007;-82
2022/09/24 09:40:19;;;;;;;;;;;22.10;99.90;;;;;;5064514;28;20338;-81
2022/09/24 09:42:47;;;;;;;;;;;22.00;99.90;;;;;;5087953;28;19943;-81
2022/09/24 09:45:20;;;;;;;;;;;22.00;99.90;;;;;;5077752;28;19962;-81
2022/09/24 09:47:49;;;;;;;;;;;22.10;99.90;;;;;;5079288;28;19939;-81
2022/09/24 09:50:23;;;;;;;;;;;22.10;99.90;;;;;;5070285;28;19932;-81
2022/09/24 09:52:50;;;;;;;;;;;22.00;99.90;;;;;;5076535;28;19970;-81
2022/09/24 09:55:21;;;;;;;;;;;21.90;99.90;;;;;;5096424;28;19961;-80
2022/09/24 09:57:52;;;;;;;;;;;21.80;99.90;;;;;;5079541;28;20027;-82
2022/09/24 10:00:26;;;;;;;;;;;21.80;99.90;;;;;;5097113;28;19932;-80
2022/09/24 10:02:54;;;;;;;;;;;21.90;99.90;;;;;;5082362;28;19924;-81
2022/09/24 10:05:24;;;;;;;;;;;21.80;99.90;;;;;;5085592;28;19928;-82
2022/09/24 10:07:52;;;;;;;;;;;21.90;99.90;;;;;;5102829;28;20011;-81
2022/09/24 10:10:19;;;;;;;;;;;21.80;99.90;;;;;;5085959;28;19928;-80
2022/09/24 10:12:46;;;;;;;;;;;21.80;99.90;;;;;;5084618;28;20445;-81
2022/09/24 10:15:19;;;;;;;;;;;21.90;99.90;;;;;;5085187;28;20369;-81
2022/09/24 10:17:47;;;;;;;;;;;21.90;99.90;;;;;;5085936;28;19923;-82
2022/09/24 10:20:16;;;;;;;;;;;21.90;99.90;;;;;;5083993;28;19986;-81
2022/09/24 10:22:54;;;;;;;;;;;22.10;99.90;;;;;;5102848;28;19924;-82
2022/09/24 10:25:24;;;;;;;;;;;22.10;99.90;;;;;;5084366;28;19928;-80
2022/09/24 10:30:32;;;;;;;;;;;22.00;99.90;;;;;;5080248;28;19997;-81
2022/09/24 10:30:49;;;;;;;;;;;21.90;99.90;;;;;;5085071;28;20407;-81
2022/09/24 10:33:17;;;;;;;;;;;21.70;99.90;;;;;;5087561;28;20443;-81
2022/09/24 10:35:44;;;;;;;;;;;21.50;99.90;;;;;;5076636;28;19952;-80
2022/09/24 10:38:16;;;;;;;;;;;21.10;99.90;;;;;;5098629;28;20526;-81
2022/09/24 10:40:43;;;;;;;;;;;21.20;99.90;;;;;;5098100;28;19928;-80
2022/09/24 10:43:16;;;;;;;;;;;21.00;99.90;;;;;;5095380;28;19928;-80
2022/09/24 10:45:51;;;;;;;;;;;20.80;99.90;;;;;;5083392;28;19935;-81
2022/09/24 10:48:23;;;;;;;;;;;20.30;99.90;;;;;;5087403;28;20353;-81
2022/09/24 10:50:56;;;;;;;;;;;20.30;99.90;;;;;;5085269;28;19928;-82
2022/09/24 10:53:28;;;;;;;;;;;20.10;99.90;;;;;;5082838;28;19928;-81
2022/09/24 10:56:02;;;;;;;;;;;20.00;99.90;;;;;;5084493;28;20543;-81
2022/09/24 10:58:45;;;;;;;;;;;19.80;99.90;;;;;;5088227;28;20486;-81
2022/09/24 11:01:17;;;;;;;;;;;19.80;99.90;;;;;;5086999;28;20504;-81
2022/09/24 11:04:02;;;;;;;;;;;19.90;99.90;;;;;;5085925;28;19935;-80
2022/09/24 11:06:36;;;;;;;;;;;19.90;99.90;;;;;;5095472;28;20391;-81
2022/09/24 11:09:12;;;;;;;;;;;19.90;99.90;;;;;;5069549;28;19924;-81
2022/09/24 11:11:44;;;;;;;;;;;19.90;99.90;;;;;;5071854;28;19932;-81
2022/09/24 11:14:19;;;;;;;;;;;19.90;99.90;;;;;;5075207;28;19936;-81
2022/09/24 11:16:56;;;;;;;;;;;19.80;99.90;;;;;;5066471;28;19955;-81
2022/09/24 11:19:32;;;;;;;;;;;19.60;99.90;;;;;;5071260;28;19995;-80
2022/09/24 11:22:06;;;;;;;;;;;19.60;99.90;;;;;;5070488;28;19987;-81
2022/09/24 11:24:39;;;;;;;;;;;19.40;99.90;;;;;;5065587;28;19924;-78
2022/09/24 11:27:17;;;;;;;;;;;19.40;99.90;;;;;;5055926;28;19951;-78
2022/09/24 11:29:49;;;;;;;;;;;19.20;99.90;;;;;;5073774;28;19929;-80
2022/09/24 11:32:19;;;;;;;;;;;19.10;99.90;;;;;;5057801;28;19978;-79
2022/09/24 11:34:55;;;;;;;;;;;18.90;99.90;;;;;;5075448;28;19924;-77
2022/09/24 11:37:28;;;;;;;;;;;18.70;99.90;;;;;;5090831;28;20391;-79
2022/09/24 11:40:02;;;;;;;;;;;18.40;99.90;;;;;;5079220;28;19928;-79
2022/09/24 11:42:32;;;;;;;;;;;18.30;99.90;;;;;;5077248;28;19928;-78
2022/09/24 11:45:10;;;;;;;;;;;18.10;99.90;;;;;;5074585;28;19932;-78
2022/09/24 11:47:42;;;;;;;;;;;18.00;99.90;;;;;;5076527;28;19943;-78
2022/09/24 11:50:20;;;;;;;;;;;17.90;99.90;;;;;;5076138;28;19931;-79
2022/09/24 11:52:50;;;;;;;;;;;17.60;99.90;;;;;;5076312;28;19939;-79
2022/09/24 11:55:19;;;;;;;;;;;17.50;99.90;;;;;;5075865;28;19954;-79
2022/09/24 11:57:50;;;;;;;;;;;17.40;99.90;;;;;;5076208;28;20398;-79
2022/09/24 12:00:18;;;;;;;;;;;17.30;99.90;;;;;;5076220;28;19931;-79
2022/09/24 12:02:48;;;;;;;;;;;17.20;99.90;;;;;;5076125;28;19928;-79
2022/09/24 12:05:20;;;;;;;;;;;17.10;99.90;;;;;;5075938;28;19928;-79
2022/09/24 12:07:49;;;;;;;;;;;16.90;99.90;;;;;;5092465;28;20009;-78
2022/09/24 12:10:24;;;;;;;;;;;16.80;99.90;;;;;;5075523;28;19985;-78
2022/09/24 12:12:53;;;;;;;;;;;16.60;99.90;;;;;;5094461;28;19928;-78
2022/09/24 12:15:22;;;;;;;;;;;16.50;99.90;;;;;;5075556;28;19966;-79
2022/09/24 12:17:51;;;;;;;;;;;16.50;99.90;;;;;;5078553;28;20291;-79
2022/09/24 12:20:21;;;;;;;;;;;16.50;99.90;;;;;;5077974;28;19935;-79
2022/09/24 12:22:50;;;;;;;;;;;16.50;99.90;;;;;;5078153;28;19934;-79
2022/09/24 12:25:17;;;;;;;;;;;16.60;99.90;;;;;;5078662;28;19924;-79
2022/09/24 12:27:45;;;;;;;;;;;16.70;99.90;;;;;;5079075;28;19928;-79
2022/09/24 12:33:08;;;;;;;;;;;16.80;99.90;;;;;;5079350;28;19940;-79
2022/09/24 12:35:42;;;;;;;;;;;16.70;99.90;;;;;;5078044;28;20384;-79
2022/09/24 12:38:12;;;;;;;;;;;16.60;99.90;;;;;;5097394;28;19959;-79
2022/09/24 12:40:58;;;;;;;;;;;16.60;99.90;;;;;;5078482;28;19932;-79
2022/09/24 12:43:28;;;;;;;;;;;16.60;99.90;;;;;;5057420;28;19925;-79
2022/09/24 12:45:57;;;;;;;;;;;16.60;99.90;;;;;;5076507;28;19928;-79
2022/09/24 12:48:24;;;;;;;;;;;16.70;99.90;;;;;;5076152;28;19940;-78
2022/09/24 12:50:57;;;;;;;;;;;16.70;99.90;;;;;;5058456;28;19943;-79
2022/09/24 12:53:26;;;;;;;;;;;16.90;99.90;;;;;;5057708;28;19939;-79
2022/09/24 12:55:58;;;;;;;;;;;17.00;99.90;;;;;;5059437;28;20019;-78
2022/09/24 12:58:28;;;;;;;;;;;17.20;99.90;;;;;;5077335;28;20331;-78
2022/09/24 13:01:05;;;;;;;;;;;17.20;99.90;;;;;;5059138;28;20300;-78
2022/09/24 13:03:33;;;;;;;;;;;17.40;99.90;;;;;;5058470;28;19932;-78
2022/09/24 13:06:00;;;;;;;;;;;;;;;;;;5074329;28;19928;-79
2022/09/24 13:08:35;;;;;;;;;;;17.70;99.90;;;;;;5057955;28;20011;-78
2022/09/24 13:11:04;;;;;;;;;;;17.90;99.90;;;;;;5057885;28;19928;-78
2022/09/24 13:13:33;;;;;;;;;;;18.00;99.90;;;;;;5075879;28;20023;-78
2022/09/24 13:16:01;;;;;;;;;;;18.00;99.90;;;;;;5075230;28;19971;-79
2022/09/24 13:18:28;;;;;;;;;;;18.10;99.90;;;;;;5063050;28;19932;-79
2022/09/24 13:21:00;;;;;;;;;;;18.20;99.90;;;;;;5078717;28;19924;-79
2022/09/24 13:23:34;;;;;;;;;;;18.30;99.90;;;;;;5077839;28;19924;-79
2022/09/24 13:26:03;;;;;;;;;;;18.30;99.90;;;;;;5078311;28;20438;-79
2022/09/24 13:28:32;;;;;;;;;;;18.30;99.90;;;;;;5077422;28;20406;-78
2022/09/24 13:31:03;;;;;;;;;;;18.30;99.90;;;;;;5077437;28;19935;-78
2022/09/24 13:33:31;;;;;;;;;;;18.50;99.90;;;;;;5077585;28;19943;-78
2022/09/24 13:36:10;;;;;;;;;;;18.60;99.90;;;;;;5077715;28;19935;-79
2022/09/24 13:38:41;;;;;;;;;;;18.90;99.90;;;;;;5077421;28;19973;-78
2022/09/24 13:41:17;;;;;;;;;;;18.90;99.90;;;;;;5096251;28;19924;-79
2022/09/24 13:43:47;;;;;;;;;;;19.10;99.90;;;;;;5077686;28;19982;-79
2022/09/24 13:46:15;;;;;;;;;;;19.10;99.90;;;;;;5095230;28;19931;-79
2022/09/24 13:48:47;;;;;;;;;;;19.20;99.90;;;;;;5097092;28;19924;-78
2022/09/24 13:51:16;;;;;;;;;;;19.20;99.90;;;;;;5079395;28;19924;-79
2022/09/24 13:53:48;;;;;;;;;;;19.30;99.90;;;;;;5078087;28;19934;-78
2022/09/24 13:56:19;;;;;;;;;;;19.30;99.90;;;;;;5096519;28;19935;-79
2022/09/24 13:58:50;;;;;;;;;;;19.20;99.90;;;;;;5096101;28;19974;-79
2022/09/24 14:01:18;;;;;;;;;;;19.20;99.90;;;;;;5068356;28;19959;-80
2022/09/24 14:03:51;;;;;;;;;;;20.40;99.90;;;;;;5072802;28;20034;-79
2022/09/24 14:06:21;;;;;;;;;;;19.00;99.90;;;;;;5058410;28;19928;-79
2022/09/24 14:08:50;;;;;;;;;;;18.80;99.90;;;;;;5073531;28;19928;-81
2022/09/24 14:11:19;;;;;;;;;;;18.70;99.90;;;;;;5073145;28;20328;-81
2022/09/24 14:13:46;;;;;;;;;;;18.60;99.90;;;;;;5053598;28;19978;-80
2022/09/24 14:16:15;;;;;;;;;;;18.60;99.90;;;;;;5073518;28;19924;-81
2022/09/24 14:18:42;;;;;;;;;;;18.50;99.90;;;;;;5075639;28;20026;-81
2022/09/24 14:21:11;;;;;;;;;;;18.50;99.90;;;;;;5058276;28;19932;-81
2022/09/24 14:23:40;;;;;;;;;;;18.50;99.90;;;;;;5086553;28;20387;-79
2022/09/24 14:26:09;;;;;;;;;;;18.40;99.90;;;;;;5077818;28;19958;-81
2022/09/24 14:28:36;;;;;;;;;;;18.40;99.90;;;;;;5097431;28;19928;-80
2022/09/24 14:31:07;;;;;;;;;;;18.30;99.90;;;;;;5078800;28;19924;-81
2022/09/24 14:33:36;;;;;;;;;;;18.20;99.90;;;;;;5077295;28;19924;-79
2022/09/24 14:36:03;;;;;;;;;;;18.20;99.90;;;;;;5078981;28;19971;-81
2022/09/24 14:38:34;;;;;;;;;;;18.10;99.90;;;;;;5073340;28;19929;-80